sensor_id;sensor_type;location;lat;lon;timestamp;pressure;altitude;pressure_sealevel;temperature
71630;BMP280;59479;51.902;8.212;2023-07-09T00:01:57;101120.94;;;26.64
71630;BMP280;59479;51.902;8.212;2023-07-09T00:04:22;101122.78;;;26.62
71630;BMP280;59479;51.902;8.212;2023-07-09T00:06:48;101124.63;;;26.60
71630;BMP280;59479;51.902;8.212;2023-07-09T00:09:22;101122.78;;;26.62
71630;BMP280;59479;51.902;8.212;2023-07-09T00:11:49;101129.59;;;26.63
71630;BMP280;59479;51.902;8.212;2023-07-09T00:14:16;101121.03;;;26.63
71630;BMP280;59479;51.902;8.212;2023-07-09T00:16:43;101124.44;;;26.63
71630;BMP280;59479;51.902;8.212;2023-07-09T00:19:17;101128.94;;;26.60
71630;BMP280;59479;51.902;8.212;2023-07-09T00:21:44;101124.72;;;26.59
71630;BMP280;59479;51.902;8.212;2023-07-09T00:24:11;101121.47;;;26.55
71630;BMP280;59479;51.902;8.212;2023-07-09T00:26:38;101126.81;;;26.52
71630;BMP280;59479;51.902;8.212;2023-07-09T00:29:04;101128.00;;;26.47
71630;BMP280;59479;51.902;8.212;2023-07-09T00:31:29;101124.84;;;26.42
71630;BMP280;59479;51.902;8.212;2023-07-09T00:33:55;101130.19;;;26.39
71630;BMP280;59479;51.902;8.212;2023-07-09T00:36:29;101116.78;;;26.32
71630;BMP280;59479;51.902;8.212;2023-07-09T00:38:57;101122.13;;;26.29
71630;BMP280;59479;51.902;8.212;2023-07-09T00:41:36;101125.34;;;26.18
71630;BMP280;59479;51.902;8.212;2023-07-09T00:49:11;101128.94;;;26.00
71630;BMP280;59479;51.902;8.212;2023-07-09T00:51:41;101122.06;;;26.00
71630;BMP280;59479;51.902;8.212;2023-07-09T00:54:35;101122.88;;;26.01
71630;BMP280;59479;51.902;8.212;2023-07-09T00:57:11;101119.56;;;25.99
71630;BMP280;59479;51.902;8.212;2023-07-09T00:59:38;101122.22;;;25.97
71630;BMP280;59479;51.902;8.212;2023-07-09T01:02:06;101126.88;;;25.91
71630;BMP280;59479;51.902;8.212;2023-07-09T01:04:32;101130.88;;;25.81
71630;BMP280;59479;51.902;8.212;2023-07-09T01:06:57;101119.56;;;25.68
71630;BMP280;59479;51.902;8.212;2023-07-09T01:09:24;101119.25;;;25.74
71630;BMP280;59479;51.902;8.212;2023-07-09T01:11:50;101113.19;;;25.75
71630;BMP280;59479;51.902;8.212;2023-07-09T01:14:18;101113.19;;;25.75
71630;BMP280;59479;51.902;8.212;2023-07-09T01:16:53;101114.84;;;25.76
71630;BMP280;59479;51.902;8.212;2023-07-09T01:19:27;101107.84;;;25.78
71630;BMP280;59479;51.902;8.212;2023-07-09T01:21:58;101114.84;;;25.76
71630;BMP280;59479;51.902;8.212;2023-07-09T01:25:06;101115.06;;;25.72
71630;BMP280;59479;51.902;8.212;2023-07-09T01:30:02;101122.22;;;25.67
71630;BMP280;59479;51.902;8.212;2023-07-09T01:32:28;101125.94;;;25.61
71630;BMP280;59479;51.902;8.212;2023-07-09T01:34:57;101113.22;;;25.58
71630;BMP280;59479;51.902;8.212;2023-07-09T01:37:25;101113.88;;;25.46
71630;BMP280;59479;51.902;8.212;2023-07-09T01:39:52;101127.31;;;25.36
71630;BMP280;59479;51.902;8.212;2023-07-09T01:42:19;101130.88;;;25.34
71630;BMP280;59479;51.902;8.212;2023-07-09T01:44:47;101125.16;;;25.29
71630;BMP280;59479;51.902;8.212;2023-07-09T01:47:14;101134.66;;;25.27
71630;BMP280;59479;51.902;8.212;2023-07-09T01:49:40;101136.41;;;25.26
71630;BMP280;59479;51.902;8.212;2023-07-09T01:52:06;101129.63;;;25.25
71630;BMP280;59479;51.902;8.212;2023-07-09T01:54:34;101135.75;;;25.23
71630;BMP280;59479;51.902;8.212;2023-07-09T01:57:19;101124.94;;;25.16
71630;BMP280;59479;51.902;8.212;2023-07-09T01:59:48;101132.13;;;25.10
71630;BMP280;59479;51.902;8.212;2023-07-09T02:02:14;101130.50;;;25.09
71630;BMP280;59479;51.902;8.212;2023-07-09T02:04:45;101123.59;;;24.92
71630;BMP280;59479;51.902;8.212;2023-07-09T02:07:11;101121.56;;;24.82
71630;BMP280;59479;51.902;8.212;2023-07-09T02:09:36;101123.13;;;24.85
71630;BMP280;59479;51.902;8.212;2023-07-09T02:12:01;101129.03;;;24.87
71630;BMP280;59479;51.902;8.212;2023-07-09T02:14:27;101129.81;;;24.89
71630;BMP280;59479;51.902;8.212;2023-07-09T02:16:53;101129.81;;;24.89
71630;BMP280;59479;51.902;8.212;2023-07-09T02:19:18;101116.25;;;24.85
71630;BMP280;59479;51.902;8.212;2023-07-09T02:21:43;101119.28;;;24.76
71630;BMP280;59479;51.902;8.212;2023-07-09T02:24:09;101113.25;;;24.77
71630;BMP280;59479;51.902;8.212;2023-07-09T02:26:34;101120.13;;;24.77
71630;BMP280;59479;51.902;8.212;2023-07-09T02:28:59;101115.97;;;24.74
71630;BMP280;59479;51.902;8.212;2023-07-09T02:31:25;101128.00;;;24.74
71630;BMP280;59479;51.902;8.212;2023-07-09T02:33:50;101129.03;;;24.70
71630;BMP280;59479;51.902;8.212;2023-07-09T02:36:16;101123.22;;;24.66
71630;BMP280;59479;51.902;8.212;2023-07-09T02:38:41;101121.88;;;24.59
71630;BMP280;59479;51.902;8.212;2023-07-09T02:41:07;101117.19;;;24.50
71630;BMP280;59479;51.902;8.212;2023-07-09T02:43:32;101123.53;;;24.44
71630;BMP280;59479;51.902;8.212;2023-07-09T02:45:57;101122.00;;;24.40
71630;BMP280;59479;51.902;8.212;2023-07-09T02:48:22;101122.06;;;24.38
71630;BMP280;59479;51.902;8.212;2023-07-09T02:50:48;101118.81;;;24.35
71630;BMP280;59479;51.902;8.212;2023-07-09T02:53:13;101124.72;;;24.37
71630;BMP280;59479;51.902;8.212;2023-07-09T02:55:38;101133.22;;;24.39
71630;BMP280;59479;51.902;8.212;2023-07-09T02:58:04;101130.84;;;24.34
71630;BMP280;59479;51.902;8.212;2023-07-09T03:00:29;101130.03;;;24.34
71630;BMP280;59479;51.902;8.212;2023-07-09T03:02:56;101144.66;;;24.32
71630;BMP280;59479;51.902;8.212;2023-07-09T03:05:21;101135.41;;;24.28
71630;BMP280;59479;51.902;8.212;2023-07-09T03:07:46;101139.88;;;24.24
71630;BMP280;59479;51.902;8.212;2023-07-09T03:10:12;101145.28;;;24.18
71630;BMP280;59479;51.902;8.212;2023-07-09T03:12:37;101148.78;;;24.17
71630;BMP280;59479;51.902;8.212;2023-07-09T03:15:02;101157.31;;;24.18
71630;BMP280;59479;51.902;8.212;2023-07-09T03:17:28;101147.34;;;24.12
71630;BMP280;59479;51.902;8.212;2023-07-09T03:19:54;101150.88;;;24.09
71630;BMP280;59479;51.902;8.212;2023-07-09T03:22:19;101139.06;;;24.06
71630;BMP280;59479;51.902;8.212;2023-07-09T03:24:44;101154.50;;;24.06
71630;BMP280;59479;51.902;8.212;2023-07-09T03:27:10;101157.13;;;24.04
71630;BMP280;59479;51.902;8.212;2023-07-09T03:29:35;101150.44;;;24.00
71630;BMP280;59479;51.902;8.212;2023-07-09T03:32:00;101158.25;;;23.99
71630;BMP280;59479;51.902;8.212;2023-07-09T03:34:26;101151.44;;;23.98
71630;BMP280;59479;51.902;8.212;2023-07-09T03:36:51;101150.69;;;23.96
71630;BMP280;59479;51.902;8.212;2023-07-09T03:39:16;101151.50;;;23.96
71630;BMP280;59479;51.902;8.212;2023-07-09T03:41:42;101151.44;;;23.79
71630;BMP280;59479;51.902;8.212;2023-07-09T03:44:07;101154.78;;;23.81
71630;BMP280;59479;51.902;8.212;2023-07-09T03:46:32;101149.63;;;23.81
71630;BMP280;59479;51.902;8.212;2023-07-09T03:48:58;101144.63;;;23.78
71630;BMP280;59479;51.902;8.212;2023-07-09T03:51:23;101150.81;;;23.74
71630;BMP280;59479;51.902;8.212;2023-07-09T03:53:49;101150.69;;;23.77
71630;BMP280;59479;51.902;8.212;2023-07-09T03:56:14;101148.25;;;23.74
71630;BMP280;59479;51.902;8.212;2023-07-09T03:58:39;101150.88;;;23.73
71630;BMP280;59479;51.902;8.212;2023-07-09T04:01:05;101150.00;;;23.74
71630;BMP280;59479;51.902;8.212;2023-07-09T04:03:30;101144.88;;;23.74
71630;BMP280;59479;51.902;8.212;2023-07-09T04:05:56;101143.19;;;23.73
71630;BMP280;59479;51.902;8.212;2023-07-09T04:08:21;101143.25;;;23.71
71630;BMP280;59479;51.902;8.212;2023-07-09T04:10:46;101147.69;;;23.68
71630;BMP280;59479;51.902;8.212;2023-07-09T04:13:12;101144.31;;;23.67
71630;BMP280;59479;51.902;8.212;2023-07-09T04:15:37;101146.19;;;23.64
71630;BMP280;59479;51.902;8.212;2023-07-09T04:18:03;101139.38;;;23.63
71630;BMP280;59479;51.902;8.212;2023-07-09T04:20:28;101139.38;;;23.63
71630;BMP280;59479;51.902;8.212;2023-07-09T04:22:53;101141.19;;;23.61
71630;BMP280;59479;51.902;8.212;2023-07-09T04:25:19;101140.34;;;23.61
71630;BMP280;59479;51.902;8.212;2023-07-09T04:27:44;101142.84;;;23.62
71630;BMP280;59479;51.902;8.212;2023-07-09T04:30:13;101147.41;;;23.56
71630;BMP280;59479;51.902;8.212;2023-07-09T04:32:40;101144.88;;;23.54
71630;BMP280;59479;51.902;8.212;2023-07-09T04:35:06;101142.53;;;23.50
71630;BMP280;59479;51.902;8.212;2023-07-09T04:37:32;101145.84;;;23.52
71630;BMP280;59479;51.902;8.212;2023-07-09T04:39:57;101144.31;;;23.48
71630;BMP280;59479;51.902;8.212;2023-07-09T04:42:22;101143.75;;;23.41
71630;BMP280;59479;51.902;8.212;2023-07-09T04:44:48;101147.31;;;23.39
71630;BMP280;59479;51.902;8.212;2023-07-09T04:47:13;101143.06;;;23.38
71630;BMP280;59479;51.902;8.212;2023-07-09T04:49:39;101140.56;;;23.36
71630;BMP280;59479;51.902;8.212;2023-07-09T04:52:04;101148.38;;;23.33
71630;BMP280;59479;51.902;8.212;2023-07-09T04:54:30;101145.69;;;23.36
71630;BMP280;59479;51.902;8.212;2023-07-09T04:56:56;101158.59;;;23.35
71630;BMP280;59479;51.902;8.212;2023-07-09T04:59:21;101163.72;;;23.35
71630;BMP280;59479;51.902;8.212;2023-07-09T05:01:47;101154.16;;;23.38
71630;BMP280;59479;51.902;8.212;2023-07-09T05:04:12;101165.41;;;23.36
71630;BMP280;59479;51.902;8.212;2023-07-09T05:06:37;101157.63;;;23.37
71630;BMP280;59479;51.902;8.212;2023-07-09T05:09:03;101163.47;;;23.41
71630;BMP280;59479;51.902;8.212;2023-07-09T05:11:30;101159.22;;;23.40
71630;BMP280;59479;51.902;8.212;2023-07-09T05:13:56;101151.28;;;23.46
71630;BMP280;59479;51.902;8.212;2023-07-09T05:16:21;101156.97;;;23.52
71630;BMP280;59479;51.902;8.212;2023-07-09T05:18:46;101155.91;;;23.56
71630;BMP280;59479;51.902;8.212;2023-07-09T05:21:12;101168.53;;;23.62
71630;BMP280;59479;51.902;8.212;2023-07-09T05:23:38;101160.72;;;23.63
71630;BMP280;59479;51.902;8.212;2023-07-09T05:26:03;101162.28;;;23.67
71630;BMP280;59479;51.902;8.212;2023-07-09T05:28:30;101160.34;;;23.72
71630;BMP280;59479;51.902;8.212;2023-07-09T05:30:57;101154.91;;;23.78
71630;BMP280;59479;51.902;8.212;2023-07-09T05:33:23;101163.16;;;23.85
71630;BMP280;59479;51.902;8.212;2023-07-09T05:35:48;101162.97;;;23.89
71630;BMP280;59479;51.902;8.212;2023-07-09T05:38:14;101163.59;;;23.94
71630;BMP280;59479;51.902;8.212;2023-07-09T05:40:40;101165.09;;;23.98
71630;BMP280;59479;51.902;8.212;2023-07-09T05:43:06;101164.84;;;24.04
71630;BMP280;59479;51.902;8.212;2023-07-09T05:45:31;101168.16;;;24.06
71630;BMP280;59479;51.902;8.212;2023-07-09T05:48:00;101171.41;;;24.09
71630;BMP280;59479;51.902;8.212;2023-07-09T05:50:27;101172.09;;;24.13
71630;BMP280;59479;51.902;8.212;2023-07-09T05:52:52;101174.31;;;24.20
71630;BMP280;59479;51.902;8.212;2023-07-09T05:55:18;101174.16;;;24.23
71630;BMP280;59479;51.902;8.212;2023-07-09T05:57:43;101173.84;;;24.31
71630;BMP280;59479;51.902;8.212;2023-07-09T06:00:09;101175.41;;;24.33
71630;BMP280;59479;51.902;8.212;2023-07-09T06:02:34;101176.78;;;24.40
71630;BMP280;59479;51.902;8.212;2023-07-09T06:05:00;101167.22;;;24.44
71630;BMP280;59479;51.902;8.212;2023-07-09T06:07:25;101173.94;;;24.46
71630;BMP280;59479;51.902;8.212;2023-07-09T06:09:51;101163.44;;;24.50
71630;BMP280;59479;51.902;8.212;2023-07-09T06:12:17;101178.56;;;24.56
71630;BMP280;59479;51.902;8.212;2023-07-09T06:14:45;101173.00;;;24.65
71630;BMP280;59479;51.902;8.212;2023-07-09T06:17:10;101162.53;;;24.68
71630;BMP280;59479;51.902;8.212;2023-07-09T06:19:35;101159.69;;;24.74
71630;BMP280;59479;51.902;8.212;2023-07-09T06:22:01;101167.91;;;24.81
71630;BMP280;59479;51.902;8.212;2023-07-09T06:24:26;101166.63;;;24.89
71630;BMP280;59479;51.902;8.212;2023-07-09T06:26:51;101169.69;;;24.97
71630;BMP280;59479;51.902;8.212;2023-07-09T06:29:17;101167.63;;;25.03
71630;BMP280;59479;51.902;8.212;2023-07-09T06:31:42;101163.84;;;25.10
71630;BMP280;59479;51.902;8.212;2023-07-09T06:34:08;101168.44;;;25.21
71630;BMP280;59479;51.902;8.212;2023-07-09T06:36:35;101170.69;;;25.27
71630;BMP280;59479;51.902;8.212;2023-07-09T06:39:00;101166.81;;;25.35
71630;BMP280;59479;51.902;8.212;2023-07-09T06:41:26;101168.41;;;25.37
71630;BMP280;59479;51.902;8.212;2023-07-09T06:43:51;101167.91;;;25.46
71630;BMP280;59479;51.902;8.212;2023-07-09T06:46:18;101175.91;;;25.57
71630;BMP280;59479;51.902;8.212;2023-07-09T06:48:44;101171.53;;;25.59
71630;BMP280;59479;51.902;8.212;2023-07-09T06:51:09;101179.72;;;25.67
71630;BMP280;59479;51.902;8.212;2023-07-09T06:53:35;101183.84;;;25.70
71630;BMP280;59479;51.902;8.212;2023-07-09T06:56:01;101186.19;;;25.74
71630;BMP280;59479;51.902;8.212;2023-07-09T06:58:30;101176.06;;;25.86
71630;BMP280;59479;51.902;8.212;2023-07-09T07:00:57;101173.66;;;25.99
71630;BMP280;59479;51.902;8.212;2023-07-09T07:03:23;101179.03;;;26.10
71630;BMP280;59479;51.902;8.212;2023-07-09T07:05:50;101185.34;;;26.19
71630;BMP280;59479;51.902;8.212;2023-07-09T07:08:17;101175.34;;;26.30
71630;BMP280;59479;51.902;8.212;2023-07-09T07:10:44;101180.72;;;26.41
71630;BMP280;59479;51.902;8.212;2023-07-09T07:13:10;101183.53;;;26.52
71630;BMP280;59479;51.902;8.212;2023-07-09T07:15:39;101182.09;;;26.62
71630;BMP280;59479;51.902;8.212;2023-07-09T07:18:05;101182.22;;;26.74
71630;BMP280;59479;51.902;8.212;2023-07-09T07:20:31;101189.31;;;26.85
71630;BMP280;59479;51.902;8.212;2023-07-09T07:22:56;101187.91;;;26.95
71630;BMP280;59479;51.902;8.212;2023-07-09T07:25:23;101193.53;;;27.01
71630;BMP280;59479;51.902;8.212;2023-07-09T07:27:48;101181.50;;;27.15
71630;BMP280;59479;51.902;8.212;2023-07-09T07:30:14;101180.69;;;27.29
71630;BMP280;59479;51.902;8.212;2023-07-09T07:32:47;101182.72;;;27.38
71630;BMP280;59479;51.902;8.212;2023-07-09T07:35:14;101178.78;;;27.46
71630;BMP280;59479;51.902;8.212;2023-07-09T07:37:42;101169.47;;;27.57
71630;BMP280;59479;51.902;8.212;2023-07-09T07:40:08;101178.22;;;27.69
71630;BMP280;59479;51.902;8.212;2023-07-09T07:42:34;101173.41;;;27.77
71630;BMP280;59479;51.902;8.212;2023-07-09T07:44:59;101174.59;;;27.85
71630;BMP280;59479;51.902;8.212;2023-07-09T07:47:25;101168.03;;;27.93
71630;BMP280;59479;51.902;8.212;2023-07-09T07:49:52;101169.78;;;28.07
71630;BMP280;59479;51.902;8.212;2023-07-09T07:52:18;101166.31;;;28.20
71630;BMP280;59479;51.902;8.212;2023-07-09T07:54:43;101169.03;;;28.31
71630;BMP280;59479;51.902;8.212;2023-07-09T07:57:08;101177.84;;;28.41
71630;BMP280;59479;51.902;8.212;2023-07-09T07:59:35;101168.59;;;28.51
71630;BMP280;59479;51.902;8.212;2023-07-09T08:02:02;101160.78;;;28.65
71630;BMP280;59479;51.902;8.212;2023-07-09T08:04:27;101164.63;;;28.72
71630;BMP280;59479;51.902;8.212;2023-07-09T08:06:53;101165.16;;;28.89
71630;BMP280;59479;51.902;8.212;2023-07-09T08:09:18;101157.53;;;29.00
71630;BMP280;59479;51.902;8.212;2023-07-09T08:11:44;101162.69;;;29.12
71630;BMP280;59479;51.902;8.212;2023-07-09T08:14:10;101150.50;;;29.26
71630;BMP280;59479;51.902;8.212;2023-07-09T08:16:35;101154.75;;;29.40
71630;BMP280;59479;51.902;8.212;2023-07-09T08:19:01;101147.06;;;29.51
71630;BMP280;59479;51.902;8.212;2023-07-09T08:21:26;101155.03;;;29.60
71630;BMP280;59479;51.902;8.212;2023-07-09T08:23:52;101148.69;;;29.64
71630;BMP280;59479;51.902;8.212;2023-07-09T08:26:17;101153.09;;;29.74
71630;BMP280;59479;51.902;8.212;2023-07-09T08:28:42;101150.84;;;29.82
71630;BMP280;59479;51.902;8.212;2023-07-09T08:31:09;101149.69;;;29.86
71630;BMP280;59479;51.902;8.212;2023-07-09T08:33:34;101147.66;;;30.02
71630;BMP280;59479;51.902;8.212;2023-07-09T08:35:59;101151.47;;;30.09
71630;BMP280;59479;51.902;8.212;2023-07-09T08:38:25;101150.66;;;29.96
71630;BMP280;59479;51.902;8.212;2023-07-09T08:40:58;101157.34;;;30.11
71630;BMP280;59479;51.902;8.212;2023-07-09T08:46:15;101143.72;;;30.32
71630;BMP280;59479;51.902;8.212;2023-07-09T08:48:45;101157.63;;;30.31
71630;BMP280;59479;51.902;8.212;2023-07-09T08:51:23;101150.09;;;30.39
71630;BMP280;59479;51.902;8.212;2023-07-09T08:53:58;101157.34;;;30.47
71630;BMP280;59479;51.902;8.212;2023-07-09T08:56:26;101146.50;;;30.52
71630;BMP280;59479;51.902;8.212;2023-07-09T08:58:54;101142.16;;;30.53
71630;BMP280;59479;51.902;8.212;2023-07-09T09:01:22;101151.25;;;30.58
71630;BMP280;59479;51.902;8.212;2023-07-09T09:03:50;101147.34;;;30.64
71630;BMP280;59479;51.902;8.212;2023-07-09T09:06:22;101145.09;;;30.59
71630;BMP280;59479;51.902;8.212;2023-07-09T09:14:01;101144.97;;;31.06
71630;BMP280;59479;51.902;8.212;2023-07-09T09:16:31;101138.16;;;31.16
71630;BMP280;59479;51.902;8.212;2023-07-09T09:18:59;101136.84;;;31.32
71630;BMP280;59479;51.902;8.212;2023-07-09T09:23:58;101134.78;;;31.48
71630;BMP280;59479;51.902;8.212;2023-07-09T09:26:31;101145.00;;;31.49
71630;BMP280;59479;51.902;8.212;2023-07-09T09:28:57;101138.63;;;31.64
71630;BMP280;59479;51.902;8.212;2023-07-09T09:31:24;101135.66;;;31.79
71630;BMP280;59479;51.902;8.212;2023-07-09T09:33:51;101140.97;;;31.89
71630;BMP280;59479;51.902;8.212;2023-07-09T09:36:20;101143.03;;;32.06
71630;BMP280;59479;51.902;8.212;2023-07-09T09:38:46;101142.50;;;32.22
71630;BMP280;59479;51.902;8.212;2023-07-09T09:41:14;101143.25;;;32.24
71630;BMP280;59479;51.902;8.212;2023-07-09T09:43:42;101132.06;;;32.33
71630;BMP280;59479;51.902;8.212;2023-07-09T09:46:09;101135.63;;;32.32
71630;BMP280;59479;51.902;8.212;2023-07-09T09:48:36;101127.94;;;32.42
71630;BMP280;59479;51.902;8.212;2023-07-09T09:51:04;101130.28;;;32.45
71630;BMP280;59479;51.902;8.212;2023-07-09T09:53:37;101122.84;;;32.40
71630;BMP280;59479;51.902;8.212;2023-07-09T09:56:05;101124.56;;;32.51
71630;BMP280;59479;51.902;8.212;2023-07-09T09:58:31;101125.97;;;32.55
71630;BMP280;59479;51.902;8.212;2023-07-09T10:00:58;101126.09;;;32.73
71630;BMP280;59479;51.902;8.212;2023-07-09T10:03:43;101122.53;;;32.74
71630;BMP280;59479;51.902;8.212;2023-07-09T10:06:16;101124.50;;;32.82
71630;BMP280;59479;51.902;8.212;2023-07-09T10:08:55;101129.19;;;32.88
71630;BMP280;59479;51.902;8.212;2023-07-09T10:11:24;101132.34;;;33.11
71630;BMP280;59479;51.902;8.212;2023-07-09T10:13:55;101131.06;;;33.26
71630;BMP280;59479;51.902;8.212;2023-07-09T10:16:30;101131.38;;;33.12
71630;BMP280;59479;51.902;8.212;2023-07-09T10:22:01;101138.03;;;33.26
71630;BMP280;59479;51.902;8.212;2023-07-09T10:27:16;101132.56;;;33.29
71630;BMP280;59479;51.902;8.212;2023-07-09T10:29:55;101132.50;;;33.40
71630;BMP280;59479;51.902;8.212;2023-07-09T10:32:34;101127.09;;;33.61
71630;BMP280;59479;51.902;8.212;2023-07-09T10:40:15;101130.69;;;33.79
71630;BMP280;59479;51.902;8.212;2023-07-09T10:42:46;101124.09;;;33.85
71630;BMP280;59479;51.902;8.212;2023-07-09T10:45:16;101123.63;;;34.09
71630;BMP280;59479;51.902;8.212;2023-07-09T10:48:06;101120.88;;;34.30
71630;BMP280;59479;51.902;8.212;2023-07-09T10:50:37;101118.00;;;34.33
71630;BMP280;59479;51.902;8.212;2023-07-09T10:53:33;101116.34;;;34.50
71630;BMP280;59479;51.902;8.212;2023-07-09T10:56:10;101117.59;;;34.56
71630;BMP280;59479;51.902;8.212;2023-07-09T11:01:40;101106.56;;;34.62
71630;BMP280;59479;51.902;8.212;2023-07-09T11:04:15;101105.69;;;34.71
71630;BMP280;59479;51.902;8.212;2023-07-09T11:06:52;101114.53;;;34.70
71630;BMP280;59479;51.902;8.212;2023-07-09T11:09:27;101109.84;;;34.64
71630;BMP280;59479;51.902;8.212;2023-07-09T11:11:56;101106.41;;;34.73
71630;BMP280;59479;51.902;8.212;2023-07-09T11:14:29;101108.72;;;34.76
71630;BMP280;59479;51.902;8.212;2023-07-09T11:16:57;101105.28;;;34.75
71630;BMP280;59479;51.902;8.212;2023-07-09T11:19:24;101095.25;;;34.89
71630;BMP280;59479;51.902;8.212;2023-07-09T11:24:47;101099.84;;;35.14
71630;BMP280;59479;51.902;8.212;2023-07-09T11:27:52;101094.69;;;35.22
71630;BMP280;59479;51.902;8.212;2023-07-09T11:30:23;101098.00;;;35.24
71630;BMP280;59479;51.902;8.212;2023-07-09T11:32:56;101095.75;;;35.29
71630;BMP280;59479;51.902;8.212;2023-07-09T11:35:27;101096.72;;;35.28
71630;BMP280;59479;51.902;8.212;2023-07-09T11:37:53;101100.25;;;35.10
71630;BMP280;59479;51.902;8.212;2023-07-09T11:40:19;101095.06;;;35.27
71630;BMP280;59479;51.902;8.212;2023-07-09T11:42:56;101096.03;;;35.35
71630;BMP280;59479;51.902;8.212;2023-07-09T11:45:26;101091.66;;;35.53
71630;BMP280;59479;51.902;8.212;2023-07-09T11:48:19;101100.88;;;35.74
71630;BMP280;59479;51.902;8.212;2023-07-09T11:50:50;101102.25;;;35.78
71630;BMP280;59479;51.902;8.212;2023-07-09T11:53:32;101087.34;;;35.62
71630;BMP280;59479;51.902;8.212;2023-07-09T11:55:59;101089.06;;;35.70
71630;BMP280;59479;51.902;8.212;2023-07-09T11:58:25;101083.50;;;35.83
71630;BMP280;59479;51.902;8.212;2023-07-09T12:00:57;101083.06;;;35.87
71630;BMP280;59479;51.902;8.212;2023-07-09T12:03:30;101071.69;;;35.96
71630;BMP280;59479;51.902;8.212;2023-07-09T12:06:07;101065.47;;;36.14
71630;BMP280;59479;51.902;8.212;2023-07-09T12:08:40;101059.41;;;36.31
71630;BMP280;59479;51.902;8.212;2023-07-09T12:11:06;101055.13;;;36.48
71630;BMP280;59479;51.902;8.212;2023-07-09T12:13:42;101052.00;;;36.52
71630;BMP280;59479;51.902;8.212;2023-07-09T12:16:29;101057.00;;;36.38
71630;BMP280;59479;51.902;8.212;2023-07-09T12:18:55;101052.91;;;36.18
71630;BMP280;59479;51.902;8.212;2023-07-09T12:21:22;101045.97;;;36.09
71630;BMP280;59479;51.902;8.212;2023-07-09T12:23:48;101050.28;;;36.18
71630;BMP280;59479;51.902;8.212;2023-07-09T12:26:17;101044.88;;;36.37
71630;BMP280;59479;51.902;8.212;2023-07-09T12:28:42;101032.25;;;36.57
71630;BMP280;59479;51.902;8.212;2023-07-09T12:31:15;101032.28;;;36.65
71630;BMP280;59479;51.902;8.212;2023-07-09T12:33:49;101019.25;;;36.73
71630;BMP280;59479;51.902;8.212;2023-07-09T12:36:16;101018.25;;;36.41
71630;BMP280;59479;51.902;8.212;2023-07-09T12:38:44;101009.72;;;36.39
71630;BMP280;59479;51.902;8.212;2023-07-09T12:41:20;101003.81;;;36.62
71630;BMP280;59479;51.902;8.212;2023-07-09T12:43:48;101006.53;;;36.53
71630;BMP280;59479;51.902;8.212;2023-07-09T12:46:14;101008.59;;;36.42
71630;BMP280;59479;51.902;8.212;2023-07-09T12:48:40;101005.34;;;36.48
71630;BMP280;59479;51.902;8.212;2023-07-09T12:51:07;101013.06;;;36.49
71630;BMP280;59479;51.902;8.212;2023-07-09T12:53:33;101005.16;;;36.66
71630;BMP280;59479;51.902;8.212;2023-07-09T12:56:00;101008.53;;;36.84
71630;BMP280;59479;51.902;8.212;2023-07-09T12:58:32;101001.97;;;36.88
71630;BMP280;59479;51.902;8.212;2023-07-09T13:01:03;101005.63;;;37.03
71630;BMP280;59479;51.902;8.212;2023-07-09T13:03:32;100999.78;;;37.09
71630;BMP280;59479;51.902;8.212;2023-07-09T13:06:00;100994.53;;;37.09
71630;BMP280;59479;51.902;8.212;2023-07-09T13:08:27;100994.75;;;37.23
71630;BMP280;59479;51.902;8.212;2023-07-09T13:10:53;100996.13;;;37.02
71630;BMP280;59479;51.902;8.212;2023-07-09T13:13:21;100995.72;;;37.14
71630;BMP280;59479;51.902;8.212;2023-07-09T13:15:57;100992.94;;;37.24
71630;BMP280;59479;51.902;8.212;2023-07-09T13:18:25;100987.34;;;37.19
71630;BMP280;59479;51.902;8.212;2023-07-09T13:20:52;100975.84;;;37.04
71630;BMP280;59479;51.902;8.212;2023-07-09T13:23:21;100974.34;;;37.01
71630;BMP280;59479;51.902;8.212;2023-07-09T13:25:47;100974.56;;;36.75
71630;BMP280;59479;51.902;8.212;2023-07-09T13:28:28;100978.59;;;36.61
71630;BMP280;59479;51.902;8.212;2023-07-09T13:30:59;100980.53;;;36.59
71630;BMP280;59479;51.902;8.212;2023-07-09T13:33:26;100972.78;;;36.50
71630;BMP280;59479;51.902;8.212;2023-07-09T13:35:52;100977.50;;;36.72
71630;BMP280;59479;51.902;8.212;2023-07-09T13:38:20;100973.16;;;36.88
71630;BMP280;59479;51.902;8.212;2023-07-09T13:40:48;100973.81;;;36.82
71630;BMP280;59479;51.902;8.212;2023-07-09T13:43:22;100978.19;;;36.82
71630;BMP280;59479;51.902;8.212;2023-07-09T13:45:47;100975.78;;;36.88
71630;BMP280;59479;51.902;8.212;2023-07-09T13:48:17;100985.47;;;36.96
71630;BMP280;59479;51.902;8.212;2023-07-09T13:50:44;100974.81;;;36.97
71630;BMP280;59479;51.902;8.212;2023-07-09T13:53:15;100977.31;;;37.06
71630;BMP280;59479;51.902;8.212;2023-07-09T13:55:42;100976.72;;;37.12
71630;BMP280;59479;51.902;8.212;2023-07-09T13:58:13;100964.56;;;37.11
71630;BMP280;59479;51.902;8.212;2023-07-09T14:00:39;100963.13;;;37.25
71630;BMP280;59479;51.902;8.212;2023-07-09T14:03:21;100962.13;;;37.18
71630;BMP280;59479;51.902;8.212;2023-07-09T14:05:48;100966.09;;;37.30
71630;BMP280;59479;51.902;8.212;2023-07-09T14:08:14;100968.41;;;37.33
71630;BMP280;59479;51.902;8.212;2023-07-09T14:10:39;100964.25;;;37.14
71630;BMP280;59479;51.902;8.212;2023-07-09T14:13:05;100960.97;;;37.12
71630;BMP280;59479;51.902;8.212;2023-07-09T14:15:33;100962.78;;;37.20
71630;BMP280;59479;51.902;8.212;2023-07-09T14:17:59;100958.03;;;37.23
71630;BMP280;59479;51.902;8.212;2023-07-09T14:20:24;100956.56;;;37.29
71630;BMP280;59479;51.902;8.212;2023-07-09T14:22:50;100945.25;;;37.20
71630;BMP280;59479;51.902;8.212;2023-07-09T14:25:24;100941.69;;;37.29
71630;BMP280;59479;51.902;8.212;2023-07-09T14:27:50;100935.09;;;37.25
71630;BMP280;59479;51.902;8.212;2023-07-09T14:30:19;100923.44;;;37.12
71630;BMP280;59479;51.902;8.212;2023-07-09T14:32:46;100917.91;;;37.23
71630;BMP280;59479;51.902;8.212;2023-07-09T14:37:36;100902.66;;;37.42
71630;BMP280;59479;51.902;8.212;2023-07-09T14:40:02;100889.38;;;37.43